createdAt,value
2022-11-16T00:05:10.409Z,8.77
2022-11-16T00:10:47.769Z,8.74
2022-11-16T00:16:19.356Z,8.71
2022-11-16T00:21:51.167Z,8.65
2022-11-16T00:27:22.901Z,8.68
2022-11-16T00:38:24.100Z,8.81
2022-11-16T00:43:55.685Z,8.84
2022-11-16T00:49:27.453Z,8.86
2022-11-16T00:54:59.408Z,8.87
2022-11-16T01:00:31.111Z,8.88
2022-11-16T01:06:02.892Z,8.80
2022-11-16T01:11:34.724Z,8.75
2022-11-16T01:17:06.640Z,8.72
2022-11-16T01:22:38.267Z,8.75
2022-11-16T01:28:10.190Z,8.77
2022-11-16T01:33:41.698Z,8.71
2022-11-16T01:39:13.561Z,8.67
2022-11-16T01:44:45.211Z,8.63
2022-11-16T01:50:17.054Z,8.57
2022-11-16T01:55:48.733Z,8.44
2022-11-16T02:01:20.189Z,8.43
2022-11-16T02:06:52.236Z,8.49
2022-11-16T02:12:23.721Z,8.47
2022-11-16T02:17:55.520Z,8.49
2022-11-16T02:23:27.316Z,8.44
2022-11-16T02:29:01.030Z,8.25
2022-11-16T02:34:38.711Z,8.19
2022-11-16T02:40:10.101Z,8.19
2022-11-16T02:45:41.940Z,8.15
2022-11-16T02:51:13.767Z,8.02
2022-11-16T02:56:45.489Z,7.96
2022-11-16T03:02:17.292Z,7.94
2022-11-16T03:07:49.356Z,8.01
2022-11-16T03:13:20.977Z,8.08
2022-11-16T03:18:53.098Z,8.05
2022-11-16T03:24:25.182Z,8.11
2022-11-16T03:29:56.822Z,8.15
2022-11-16T03:35:28.783Z,8.16
2022-11-16T03:41:00.566Z,8.14
2022-11-16T03:46:32.163Z,8.12
2022-11-16T03:52:04.045Z,8.16
2022-11-16T03:57:35.834Z,8.19
2022-11-16T04:03:07.549Z,8.16
2022-11-16T04:08:39.659Z,8.19
2022-11-16T04:14:13.181Z,8.26
2022-11-16T04:19:45.000Z,8.24
2022-11-16T04:25:16.847Z,8.28
2022-11-16T04:30:48.594Z,8.31
2022-11-16T04:36:20.825Z,8.31
2022-11-16T04:41:52.348Z,8.32
2022-11-16T04:47:24.501Z,8.32
2022-11-16T04:52:56.254Z,8.31
2022-11-16T04:58:28.117Z,8.33
2022-11-16T05:03:59.839Z,8.29
2022-11-16T05:09:31.764Z,8.33
2022-11-16T05:15:03.428Z,8.31
2022-11-16T05:20:35.300Z,8.36
2022-11-16T05:26:06.733Z,8.39
2022-11-16T05:31:40.551Z,8.44
2022-11-16T05:37:10.506Z,8.49
2022-11-16T05:42:42.761Z,8.54
2022-11-16T05:48:14.651Z,8.57
2022-11-16T05:53:46.434Z,8.60
2022-11-16T05:59:18.156Z,8.63
2022-11-16T06:04:49.952Z,8.68
2022-11-16T06:10:22.016Z,8.70
2022-11-16T06:16:00.320Z,8.74
2022-11-16T06:21:32.323Z,8.78
2022-11-16T06:27:04.227Z,8.86
2022-11-16T06:32:36.442Z,8.84
2022-11-16T06:38:09.027Z,8.98
2022-11-16T06:43:41.208Z,9.01
2022-11-16T06:49:13.292Z,9.04
2022-11-16T06:54:45.578Z,9.15
2022-11-16T07:00:17.885Z,9.22
2022-11-16T07:05:50.169Z,9.33
2022-11-16T07:11:22.308Z,9.36
2022-11-16T07:16:59.365Z,9.47
2022-11-16T07:22:26.315Z,9.53
2022-11-16T07:27:58.512Z,9.58
2022-11-16T07:33:30.742Z,9.63
2022-11-16T07:39:02.824Z,9.81
2022-11-16T07:44:35.205Z,9.85
2022-11-16T07:50:07.059Z,9.98
2022-11-16T07:55:38.824Z,10.02
2022-11-16T08:01:10.717Z,10.12
2022-11-16T08:03:24.908Z,0.00
2022-11-16T08:08:58.701Z,10.29
2022-11-16T08:14:27.512Z,10.33
2022-11-16T08:25:29.372Z,10.56
2022-11-16T08:31:01.404Z,10.84
2022-11-16T08:36:32.880Z,10.88
2022-11-16T08:42:04.885Z,11.10
2022-11-16T08:47:36.767Z,11.23
2022-11-16T08:53:08.694Z,11.44
2022-11-16T08:58:40.476Z,11.57
2022-11-16T09:04:12.243Z,11.73
2022-11-16T09:09:44.024Z,11.77
2022-11-16T09:15:15.903Z,11.96
2022-11-16T09:20:47.383Z,12.06
2022-11-16T09:26:19.497Z,12.22
2022-11-16T09:37:21.155Z,12.54
2022-11-16T09:42:53.158Z,12.64
2022-11-16T09:48:25.422Z,12.78
2022-11-16T09:53:57.609Z,12.81
2022-11-16T09:59:29.870Z,12.86
2022-11-16T10:05:02.263Z,12.86
2022-11-16T10:10:33.958Z,12.94
2022-11-16T10:16:06.406Z,12.95
2022-11-16T10:21:38.497Z,12.98
2022-11-16T10:35:08.819Z,13.08
2022-11-16T10:40:40.903Z,13.16
2022-11-16T10:46:12.523Z,13.13
2022-11-16T10:51:44.458Z,13.19
2022-11-16T10:57:16.537Z,13.25
2022-11-16T11:02:48.077Z,13.46
2022-11-16T11:08:20.126Z,13.62
2022-11-16T11:13:51.926Z,14.05
2022-11-16T11:24:56.214Z,14.68
2022-11-16T11:30:28.203Z,14.86
2022-11-16T11:36:00.329Z,15.17
2022-11-16T11:41:32.259Z,15.24
2022-11-16T11:47:50.366Z,15.33
2022-11-16T11:58:06.243Z,15.53
2022-11-16T12:03:37.749Z,15.51
2022-11-16T12:09:09.730Z,15.44
2022-11-16T12:14:41.454Z,15.29
2022-11-16T12:20:13.395Z,15.19
2022-11-16T12:25:45.031Z,14.96
2022-11-16T12:31:17.171Z,14.84
2022-11-16T12:36:49.323Z,14.65
2022-11-16T12:42:21.516Z,14.61
2022-11-16T12:50:13.876Z,14.50
2022-11-16T12:55:45.653Z,14.53
2022-11-16T13:01:17.571Z,14.51
2022-11-16T13:06:49.642Z,14.65
2022-11-16T13:12:21.448Z,14.85
2022-11-16T13:17:53.310Z,15.44
2022-11-16T13:23:25.634Z,15.72
2022-11-16T13:28:57.773Z,16.19
2022-11-16T13:34:29.630Z,16.44
2022-11-16T13:40:03.790Z,16.92
2022-11-16T13:45:35.743Z,17.09
2022-11-16T13:51:10.232Z,16.93
2022-11-16T13:56:42.651Z,16.80
2022-11-16T14:02:14.902Z,16.57
2022-11-16T14:13:16.463Z,15.99
2022-11-16T14:18:48.573Z,15.81
2022-11-16T14:24:20.798Z,15.51
2022-11-16T14:29:52.896Z,15.37
2022-11-16T14:35:24.632Z,15.21
2022-11-16T14:46:26.621Z,14.81
2022-11-16T14:51:58.887Z,14.70
2022-11-16T14:57:30.692Z,14.24
2022-11-16T15:03:03.053Z,14.05
2022-11-16T15:14:03.265Z,13.65
2022-11-16T15:19:34.689Z,13.46
2022-11-16T15:25:06.930Z,13.34
2022-11-16T15:30:38.568Z,13.08
2022-11-16T15:36:10.507Z,12.98
2022-11-16T15:41:41.928Z,12.70
2022-11-16T15:52:42.972Z,12.32
2022-11-16T15:58:15.271Z,12.15
2022-11-16T16:03:46.892Z,11.91
2022-11-16T16:09:19.007Z,11.75
2022-11-16T16:14:51.665Z,11.57
2022-11-16T16:20:23.307Z,11.47
2022-11-16T16:25:55.181Z,11.31
2022-11-16T16:31:26.896Z,11.25
2022-11-16T16:36:58.602Z,11.06
2022-11-16T16:42:31.071Z,10.96
2022-11-16T16:48:02.757Z,10.90
2022-11-16T16:53:34.968Z,10.75
2022-11-16T16:59:06.752Z,10.71
2022-11-16T17:04:38.709Z,10.57
2022-11-16T17:10:10.370Z,10.51
2022-11-16T17:15:42.095Z,10.44
2022-11-16T17:21:13.824Z,10.40
2022-11-16T17:26:45.726Z,10.35
2022-11-16T17:32:17.582Z,10.30
2022-11-16T17:37:49.404Z,10.22
2022-11-16T17:43:21.016Z,10.13
2022-11-16T17:48:52.984Z,9.99
2022-11-16T17:54:24.816Z,9.92
2022-11-16T17:59:56.741Z,9.78
2022-11-16T18:05:28.889Z,9.71
2022-11-16T18:11:01.093Z,9.54
2022-11-16T18:16:32.866Z,9.46
2022-11-16T18:22:04.786Z,9.27
2022-11-16T18:27:36.432Z,9.22
2022-11-16T18:33:08.030Z,9.09
2022-11-16T18:38:40.083Z,9.04
2022-11-16T18:44:11.916Z,8.99
2022-11-16T18:49:43.440Z,8.98
2022-11-16T18:55:15.193Z,8.97
2022-11-16T19:00:47.301Z,8.95
2022-11-16T19:06:18.798Z,8.92
2022-11-16T19:11:50.442Z,8.88
2022-11-16T19:17:21.929Z,8.86
2022-11-16T19:22:53.969Z,8.81
2022-11-16T19:28:25.946Z,8.75
2022-11-16T19:33:57.893Z,8.68
2022-11-16T19:39:29.667Z,8.63
2022-11-16T19:45:01.659Z,8.57
2022-11-16T19:50:33.438Z,8.56
2022-11-16T19:56:05.062Z,8.49
2022-11-16T20:01:37.024Z,8.42
2022-11-16T20:07:08.796Z,8.33
2022-11-16T20:12:40.425Z,8.26
2022-11-16T20:18:12.230Z,8.12
2022-11-16T20:23:43.859Z,8.07
2022-11-16T20:29:15.826Z,7.97
2022-11-16T20:34:47.415Z,7.91
2022-11-16T20:40:19.096Z,7.83
2022-11-16T20:45:51.064Z,7.77
2022-11-16T20:51:23.416Z,7.69
2022-11-16T20:56:55.426Z,7.63
2022-11-16T21:02:27.423Z,7.47
2022-11-16T21:07:59.345Z,7.42
2022-11-16T21:13:31.345Z,7.33
2022-11-16T21:19:02.958Z,7.28
2022-11-16T21:24:34.594Z,7.21
2022-11-16T21:30:06.407Z,7.15
2022-11-16T21:35:38.238Z,7.03
2022-11-16T21:41:10.096Z,7.00
2022-11-16T21:46:41.776Z,6.90
2022-11-16T21:52:13.470Z,6.84
2022-11-16T21:57:45.359Z,6.75
2022-11-16T22:03:17.263Z,6.69
2022-11-16T22:08:49.172Z,6.65
2022-11-16T22:14:20.968Z,6.60
2022-11-16T22:19:52.547Z,6.60
2022-11-16T22:25:24.215Z,6.55
2022-11-16T22:30:56.373Z,6.53
2022-11-16T22:36:28.076Z,6.43
2022-11-16T22:41:59.705Z,6.41
2022-11-16T22:47:31.569Z,6.29
2022-11-16T22:53:03.247Z,6.26
2022-11-16T22:58:35.029Z,6.17
2022-11-16T23:04:06.809Z,6.13
2022-11-16T23:09:38.591Z,6.10
2022-11-16T23:15:10.619Z,6.04
2022-11-16T23:20:42.473Z,5.94
2022-11-16T23:26:14.228Z,5.84
2022-11-16T23:31:46.034Z,5.76
2022-11-16T23:37:17.971Z,5.73
2022-11-16T23:42:50.256Z,5.62
2022-11-16T23:48:22.410Z,5.53
2022-11-16T23:53:54.653Z,5.38
2022-11-16T23:59:26.543Z,5.32
